Time;durP1;ratioP1;P1;durP2;ratioP2;P2;SDS_P1;SDS_P2;PMS_P1;PMS_P2;Temp;Humidity;BMP_temperature;BMP_pressure;BME280_temperature;BME280_humidity;BME280_pressure;Samples;Min_cycle;Max_cycle;Signal;HPM_P1;HPM_P2
2022/07/28 00:02:37;;;;;;;2.90;2.37;;;;;;;23.81;43.96;98705.53;6958159;28;20777;-79
2022/07/28 00:05:59;;;;;;;3.67;2.30;;;;;;;23.10;45.07;98706.47;6958773;28;20253;-79
2022/07/28 00:09:20;;;;;;;3.00;2.50;;;;;;;23.05;45.09;98679.00;6953811;28;20261;-79
2022/07/28 00:12:43;;;;;;;2.40;2.20;;;;;;;22.60;46.73;98682.13;6958840;28;20223;-79
2022/07/28 00:16:05;;;;;;;2.80;2.60;;;;;;;23.00;45.67;98696.38;6955712;28;20207;-79
2022/07/28 00:19:27;;;;;;;2.53;2.20;;;;;;;23.25;44.21;98670.63;6950941;28;20821;-78
2022/07/28 00:22:49;;;;;;;2.10;2.00;;;;;;;23.41;44.41;98669.34;6952389;28;20244;-79
2022/07/28 00:26:11;;;;;;;3.17;2.37;;;;;;;23.61;43.87;98674.66;6953323;28;20225;-79
2022/07/28 00:29:34;;;;;;;3.67;2.60;;;;;;;23.31;44.85;98681.28;6954705;28;20582;-79
2022/07/28 00:32:55;;;;;;;2.90;2.60;;;;;;;22.33;47.39;98677.06;6952874;28;20763;-79
2022/07/28 00:36:17;;;;;;;3.00;2.67;;;;;;;22.35;47.31;98668.50;6957690;28;20208;-79
2022/07/28 00:39:39;;;;;;;2.87;2.33;;;;;;;22.31;47.64;98672.94;6953970;28;20226;-79
2022/07/28 00:43:00;;;;;;;3.30;2.60;;;;;;;22.79;45.62;98672.94;6958901;28;20221;-79
2022/07/28 00:46:23;;;;;;;2.70;2.43;;;;;;;22.92;45.18;98671.44;6950963;28;20259;-79
2022/07/28 00:49:47;;;;;;;2.87;2.23;;;;;;;23.09;45.20;98667.16;6951643;28;20209;-79
2022/07/28 00:53:08;;;;;;;5.43;2.67;;;;;;;22.63;46.25;98673.31;6960242;28;20241;-78
2022/07/28 00:56:30;;;;;;;5.97;2.60;;;;;;;22.50;46.69;98663.78;6971550;28;20222;-79
2022/07/28 00:59:52;;;;;;;2.77;2.50;;;;;;;22.53;46.66;98665.16;6955322;28;20218;-79
2022/07/28 01:03:15;;;;;;;6.00;2.93;;;;;;;21.89;48.10;98665.19;6961040;28;20225;-79
2022/07/28 01:07:15;;;;;;;3.53;2.70;;;;;;;21.63;48.83;98668.25;6959393;28;20254;-79
2022/07/28 01:10:42;;;;;;;2.77;2.57;;;;;;;21.95;48.21;98657.75;6920254;28;20234;-79
2022/07/28 01:14:09;;;;;;;3.07;2.30;;;;;;;22.33;46.90;98668.81;6960074;28;20260;-78
2022/07/28 01:17:36;;;;;;;2.90;2.60;;;;;;;22.50;46.18;98662.97;6950430;28;20202;-80
2022/07/28 01:21:03;;;;;;;2.97;2.60;;;;;;;22.48;46.31;98657.75;6949726;28;20232;-79
2022/07/28 01:24:27;;;;;;;3.33;2.43;;;;;;;22.04;47.03;98651.38;6949947;28;20249;-79
2022/07/28 01:27:57;;;;;;;2.87;2.67;;;;;;;21.52;48.48;98664.72;6949047;28;20306;-79
2022/07/28 01:31:23;;;;;;;3.23;2.70;;;;;;;21.43;49.30;98640.91;6947992;28;20272;-79
2022/07/28 01:34:50;;;;;;;3.63;2.70;;;;;;;21.64;48.79;98648.78;6949845;28;20286;-78
2022/07/28 01:38:13;;;;;;;3.93;2.43;;;;;;;21.90;48.00;98628.38;6948820;28;20661;-79
2022/07/28 01:41:36;;;;;;;3.00;2.70;;;;;;;21.89;48.06;98636.91;6948256;28;20279;-79
2022/07/28 01:44:59;;;;;;;2.63;2.43;;;;;;;21.78;48.07;98638.88;6949136;28;20706;-79
2022/07/28 01:48:24;;;;;;;4.10;2.47;;;;;;;21.98;47.38;98646.19;6948474;28;20630;-79
2022/07/28 01:51:46;;;;;;;4.60;2.90;;;;;;;21.57;47.75;98647.44;6948573;28;20326;-79
2022/07/28 01:55:09;;;;;;;3.13;2.80;;;;;;;21.47;48.58;98626.34;6948949;28;20667;-79
2022/07/28 01:58:32;;;;;;;2.93;2.40;;;;;;;21.66;48.46;98638.34;6948387;28;20203;-79
2022/07/28 02:01:54;;;;;;;4.80;2.70;;;;;;;21.90;47.25;98636.63;6949178;28;20227;-79
2022/07/28 02:05:19;;;;;;;5.10;3.00;;;;;;;21.68;47.33;98595.03;6948816;28;20230;-79
2022/07/28 02:08:41;;;;;;;3.67;2.87;;;;;;;21.88;47.48;98636.09;6948104;28;20195;-79
2022/07/28 02:12:04;;;;;;;3.20;2.60;;;;;;;21.83;47.54;98629.81;6951112;28;20260;-79
2022/07/28 02:15:27;;;;;;;3.30;2.47;;;;;;;21.78;47.60;98625.16;6949159;28;20296;-79
2022/07/28 02:18:49;;;;;;;5.50;2.70;;;;;;;21.25;48.83;98614.88;6948572;28;20273;-79
2022/07/28 02:22:12;;;;;;;4.90;3.03;;;;;;;21.02;49.64;98614.66;6949184;28;20222;-79
2022/07/28 02:25:35;;;;;;;5.50;3.00;;;;;;;21.58;48.11;98614.22;6948631;28;20326;-79
2022/07/28 02:28:58;;;;;;;3.00;2.80;;;;;;;21.57;47.86;98618.06;6947846;28;20271;-79
2022/07/28 02:32:23;;;;;;;3.70;2.97;;;;;;;21.41;48.00;98604.66;6947398;28;20360;-79
2022/07/28 02:35:49;;;;;;;4.97;3.03;;;;;;;21.50;47.71;98594.78;6947839;28;20214;-79
2022/07/28 02:39:17;;;;;;;3.60;2.90;;;;;;;21.43;48.25;98616.22;6947220;28;20280;-78
2022/07/28 02:42:40;;;;;;;3.20;2.80;;;;;;;21.54;47.66;98599.41;6947732;28;20226;-78
2022/07/28 02:46:06;;;;;;;3.20;2.90;;;;;;;21.65;47.49;98614.75;6947941;28;20292;-79
2022/07/28 02:49:30;;;;;;;3.73;3.03;;;;;;;20.20;50.83;98610.50;6946807;28;20182;-79
2022/07/28 02:52:53;;;;;;;4.57;3.10;;;;;;;20.38;51.33;98619.03;6949405;28;20324;-79
2022/07/28 02:56:17;;;;;;;2.70;2.50;;;;;;;20.27;50.93;98592.72;6953080;28;20255;-78
2022/07/28 02:59:39;;;;;;;4.83;2.87;;;;;;;20.96;49.41;98614.94;6952851;28;20216;-78
2022/07/28 03:03:01;;;;;;;3.17;2.67;;;;;;;21.05;48.85;98621.50;6979808;28;20233;-79
2022/07/28 03:06:23;;;;;;;4.47;3.10;;;;;;;20.74;49.30;98578.78;6953582;28;20319;-79
2022/07/28 03:09:46;;;;;;;3.60;2.90;;;;;;;20.85;49.05;98597.66;6954055;28;20755;-79
2022/07/28 03:13:09;;;;;;;4.73;3.00;;;;;;;20.75;48.62;98597.66;6956998;28;20233;-79
2022/07/28 03:16:30;;;;;;;5.97;3.70;;;;;;;19.56;52.51;98622.84;6954131;28;20538;-79
2022/07/28 03:19:52;;;;;;;5.13;3.23;;;;;;;19.84;52.50;98614.22;6953088;28;20237;-78
2022/07/28 03:23:14;;;;;;;4.07;3.10;;;;;;;20.24;51.13;98611.59;6951973;28;20302;-79
2022/07/28 03:26:40;;;;;;;4.37;3.30;;;;;;;20.30;51.20;98614.09;6954160;28;20317;-78
2022/07/28 03:30:06;;;;;;;6.10;3.60;;;;;;;20.61;50.02;98618.50;6953929;28;20210;-79
2022/07/28 03:33:28;;;;;;;3.03;2.73;;;;;;;20.64;49.74;98611.63;6953971;28;20289;-79
2022/07/28 03:37:09;;;;;;;4.27;3.73;;;;;;;19.91;51.38;98633.94;6955017;28;20217;-79
2022/07/28 03:40:31;;;;;;;5.47;3.20;;;;;;;19.66;52.76;98622.91;6953678;28;20629;-79
2022/07/28 03:43:53;;;;;;;4.80;3.50;;;;;;;19.42;52.11;98520.53;6954403;28;20233;-78
2022/07/28 03:47:21;;;;;;;4.43;3.20;;;;;;;20.31;50.63;98618.47;6956832;28;20319;-79
2022/07/28 03:50:42;;;;;;;3.83;3.20;;;;;;;20.36;50.19;98599.31;6958928;28;20250;-79
2022/07/28 03:54:04;;;;;;;6.30;3.40;;;;;;;20.46;50.03;98617.66;6960334;28;20205;-79
2022/07/28 03:57:26;;;;;;;4.63;3.60;;;;;;;19.92;51.79;98627.38;6961933;28;20213;-79
2022/07/28 04:00:48;;;;;;;4.67;3.17;;;;;;;20.21;50.71;98603.91;6963023;28;20266;-79
2022/07/28 04:04:11;;;;;;;4.07;3.50;;;;;;;20.05;51.30;98615.91;6956092;28;20564;-80
2022/07/28 04:07:32;;;;;;;4.10;3.33;;;;;;;20.26;50.56;98612.16;6952995;28;20237;-80
2022/07/28 04:10:54;;;;;;;4.60;3.43;;;;;;;20.27;50.38;98614.63;6953023;28;20361;-80
2022/07/28 04:14:16;;;;;;;5.17;3.33;;;;;;;20.59;49.65;98639.88;6953159;28;20577;-80
2022/07/28 04:17:38;;;;;;;3.70;3.30;;;;;;;20.67;49.28;98634.63;6951823;28;20270;-80
2022/07/28 04:21:00;;;;;;;8.23;3.57;;;;;;;20.65;49.35;98647.00;6952627;28;20280;-79
2022/07/28 04:24:22;;;;;;;5.80;3.47;;;;;;;20.43;50.28;98643.69;6952754;28;20235;-79
2022/07/28 04:27:44;;;;;;;4.20;3.40;;;;;;;20.55;50.37;98641.50;6952649;28;20240;-79
2022/07/28 04:31:06;;;;;;;3.37;3.03;;;;;;;20.75;48.69;98625.06;6952380;28;20225;-80
2022/07/28 04:34:27;;;;;;;3.87;3.30;;;;;;;20.01;50.86;98633.97;6953724;28;20205;-79
2022/07/28 04:37:53;;;;;;;5.07;3.60;;;;;;;19.91;51.73;98642.13;6952346;28;20228;-79
2022/07/28 04:41:15;;;;;;;4.03;3.53;;;;;;;20.27;50.81;98642.00;6952219;28;20236;-80
2022/07/28 04:44:41;;;;;;;4.97;3.10;;;;;;;20.54;50.60;98637.13;6952326;28;20242;-80
2022/07/28 04:48:02;;;;;;;3.60;3.17;;;;;;;20.52;49.87;98635.75;6952447;28;20314;-80
2022/07/28 04:51:24;;;;;;;3.67;3.20;;;;;;;20.72;49.22;98630.25;6951602;28;20268;-77
2022/07/28 04:54:47;;;;;;;3.30;3.00;;;;;;;20.78;49.54;98635.47;6951774;28;20239;-79
2022/07/28 04:58:08;;;;;;;4.77;3.20;;;;;;;20.52;49.92;98646.69;6953979;28;20209;-79
2022/07/28 05:01:30;;;;;;;3.37;3.07;;;;;;;20.77;49.71;98647.53;6952425;28;20232;-79
2022/07/28 05:04:52;;;;;;;3.77;3.00;;;;;;;20.77;49.75;98630.25;6954073;28;20286;-79
2022/07/28 05:08:13;;;;;;;4.43;3.57;;;;;;;21.10;49.37;98643.44;6958732;28;20290;-79
2022/07/28 05:11:36;;;;;;;5.07;3.00;;;;;;;21.50;48.23;98625.78;6971248;28;20694;-79
2022/07/28 05:14:58;;;;;;;4.43;3.00;;;;;;;21.90;47.03;98613.84;6951248;28;20207;-79
2022/07/28 05:18:19;;;;;;;5.53;3.40;;;;;;;21.42;48.69;98639.25;6949538;28;20226;-79
2022/07/28 05:21:41;;;;;;;4.43;3.63;;;;;;;21.07;49.73;98647.56;6950304;28;20629;-78
2022/07/28 05:25:02;;;;;;;6.50;3.37;;;;;;;21.80;47.74;98633.09;6950201;28;20232;-79
2022/07/28 05:28:25;;;;;;;3.20;2.90;;;;;;;22.11;46.37;98620.84;6949665;28;20235;-79
2022/07/28 05:31:47;;;;;;;5.73;3.17;;;;;;;22.41;46.12;98642.63;6948903;28;20594;-79
2022/07/28 05:35:09;;;;;;;3.80;3.37;;;;;;;22.43;46.46;98637.72;6953168;28;20203;-78
2022/07/28 05:38:31;;;;;;;4.97;3.27;;;;;;;23.49;43.59;98632.94;6951097;28;20199;-79
2022/07/28 05:41:53;;;;;;;3.73;3.23;;;;;;;23.68;43.66;98631.06;6951605;28;20322;-78
2022/07/28 05:45:16;;;;;;;6.83;3.07;;;;;;;23.93;42.76;98639.88;6951236;28;20304;-80
2022/07/28 05:48:37;;;;;;;5.30;3.20;;;;;;;23.96;42.47;98632.97;6951431;28;20266;-79
2022/07/28 05:51:59;;;;;;;4.60;3.30;;;;;;;24.38;41.67;98631.00;6950725;28;20281;-79
2022/07/28 05:55:21;;;;;;;5.10;3.40;;;;;;;24.56;41.24;98624.66;6950853;28;20249;-79
2022/07/28 05:58:42;;;;;;;5.90;3.60;;;;;;;24.72;41.47;98637.09;6950487;28;20668;-79
2022/07/28 06:02:05;;;;;;;4.50;3.30;;;;;;;24.28;41.72;98631.13;6950932;28;20272;-80
2022/07/28 06:05:29;;;;;;;4.93;2.90;;;;;;;25.06;40.75;98612.78;6950366;28;20586;-79
2022/07/28 06:08:50;;;;;;;3.53;3.00;;;;;;;24.68;40.65;98632.47;6951602;28;20227;-79
2022/07/28 06:12:12;;;;;;;6.17;3.03;;;;;;;25.64;38.99;98618.59;6953161;28;20222;-79
2022/07/28 06:15:34;;;;;;;4.23;3.10;;;;;;;25.11;39.10;98618.22;6951968;28;20207;-79
2022/07/28 06:18:56;;;;;;;4.93;3.50;;;;;;;24.63;39.81;98621.53;6951363;28;20297;-79
2022/07/28 06:22:18;;;;;;;4.87;3.33;;;;;;;24.37;40.98;98632.09;6952400;28;20244;-79
2022/07/28 06:25:40;;;;;;;4.57;3.50;;;;;;;24.42;40.80;98634.75;6957603;28;20211;-79
2022/07/28 06:29:02;;;;;;;5.53;2.97;;;;;;;23.99;42.03;98637.84;6958717;28;20273;-79
2022/07/28 06:32:24;;;;;;;4.37;3.60;;;;;;;24.61;40.51;98629.28;6959051;28;20305;-79
2022/07/28 06:35:47;;;;;;;5.70;3.10;;;;;;;24.48;40.60;98630.81;6954494;28;20217;-79
2022/07/28 06:39:08;;;;;;;3.40;2.90;;;;;;;23.95;42.02;98634.06;6950535;28;20735;-79
2022/07/28 06:42:30;;;;;;;6.80;3.50;;;;;;;25.39;39.67;98624.63;6950442;28;20707;-80
2022/07/28 06:45:51;;;;;;;4.40;3.60;;;;;;;24.94;40.76;98628.16;6950241;28;20599;-79
2022/07/28 06:49:13;;;;;;;7.37;4.03;;;;;;;25.29;39.60;98606.31;6950091;28;20214;-79
2022/07/28 06:52:36;;;;;;;5.33;3.53;;;;;;;24.91;40.15;98624.09;6950479;28;20273;-79
2022/07/28 06:55:58;;;;;;;6.63;4.17;;;;;;;24.24;42.12;98626.50;6953015;28;20210;-79
2022/07/28 06:59:19;;;;;;;4.83;3.80;;;;;;;25.00;41.29;98621.44;6950186;28;20230;-79
2022/07/28 07:02:41;;;;;;;5.43;4.00;;;;;;;25.28;40.26;98621.25;6944883;28;20627;-79
2022/07/28 07:06:03;;;;;;;6.90;4.53;;;;;;;25.82;39.59;98607.47;6950403;28;20538;-79
2022/07/28 07:09:26;;;;;;;6.87;4.50;;;;;;;25.03;40.90;98605.13;6949172;28;20241;-79
2022/07/28 07:12:48;;;;;;;6.10;4.03;;;;;;;24.83;41.71;98593.63;6949696;28;20234;-79
2022/07/28 07:16:09;;;;;;;5.30;4.70;;;;;;;25.99;39.61;98604.09;6950052;28;20207;-79
2022/07/28 07:19:31;;;;;;;7.50;4.60;;;;;;;25.55;39.69;98595.59;6950489;28;20292;-79
2022/07/28 07:22:52;;;;;;;6.57;3.90;;;;;;;25.09;41.44;98605.84;6949534;28;20223;-78
2022/07/28 07:26:15;;;;;;;6.57;4.47;;;;;;;25.03;42.01;98607.88;6949003;28;20238;-79
2022/07/28 07:29:37;;;;;;;5.03;4.10;;;;;;;26.25;39.57;98592.16;6949072;28;20352;-79
2022/07/28 07:32:58;;;;;;;6.17;4.70;;;;;;;26.16;39.64;98584.91;6949137;28;20309;-79
2022/07/28 07:36:20;;;;;;;5.30;4.80;;;;;;;26.31;39.82;98598.41;6950758;28;20195;-79
2022/07/28 07:39:41;;;;;;;4.97;4.20;;;;;;;27.31;38.42;98596.72;6953693;28;20208;-79
2022/07/28 07:43:05;;;;;;;4.50;4.03;;;;;;;28.20;36.29;98592.47;6957182;28;20226;-80
2022/07/28 07:46:26;;;;;;;5.57;4.20;;;;;;;27.93;37.52;98591.94;6957003;28;20234;-79
2022/07/28 07:49:48;;;;;;;5.53;4.47;;;;;;;28.81;35.18;98577.50;6957528;28;20249;-79
2022/07/28 07:53:10;;;;;;;6.70;4.20;;;;;;;29.69;34.04;98588.56;6969332;28;20237;-79
2022/07/28 07:56:31;;;;;;;4.70;4.27;;;;;;;29.88;33.65;98586.16;6972372;28;20262;-80
2022/07/28 07:59:54;;;;;;;4.20;3.80;;;;;;;28.55;36.62;98601.69;6961657;28;20206;-80
2022/07/28 08:03:16;;;;;;;4.57;4.17;;;;;;;29.13;35.54;98594.44;6958001;28;20234;-80
2022/07/28 08:06:38;;;;;;;6.00;4.87;;;;;;;29.02;35.21;98593.16;6959067;28;20234;-80
2022/07/28 08:09:59;;;;;;;6.33;4.40;;;;;;;28.94;35.79;98593.13;6957833;28;20208;-80
2022/07/28 08:13:21;;;;;;;4.70;4.30;;;;;;;29.12;35.77;98587.25;6958643;28;20258;-80
2022/07/28 08:16:44;;;;;;;7.57;4.93;;;;;;;28.09;37.04;98562.63;6958244;28;20208;-80
2022/07/28 08:20:07;;;;;;;11.47;5.90;;;;;;;27.82;37.72;98577.56;6957166;28;20217;-80
2022/07/28 08:23:29;;;;;;;4.83;4.43;;;;;;;28.13;37.47;98585.78;6954024;28;20223;-80
2022/07/28 08:26:51;;;;;;;9.03;4.87;;;;;;;28.32;37.58;98584.31;6954375;28;20249;-79
2022/07/28 08:30:14;;;;;;;7.10;4.20;;;;;;;28.38;37.54;98585.03;6953401;28;20198;-80
2022/07/28 08:33:37;;;;;;;4.80;4.40;;;;;;;28.42;36.89;98586.81;6951857;28;20709;-80
2022/07/28 08:36:59;;;;;;;5.90;4.87;;;;;;;28.08;37.72;98575.66;6953863;28;20276;-80
2022/07/28 08:40:21;;;;;;;5.67;4.40;;;;;;;28.76;36.84;98585.97;6952701;28;20214;-80
2022/07/28 08:43:42;;;;;;;6.73;4.90;;;;;;;27.81;38.66;98578.72;6952825;28;20231;-80
2022/07/28 08:47:04;;;;;;;5.20;4.70;;;;;;;28.21;37.46;98560.03;6952435;28;20231;-80
2022/07/28 08:50:27;;;;;;;7.17;5.10;;;;;;;27.86;37.58;98559.16;6949848;28;20694;-80
2022/07/28 08:53:50;;;;;;;5.13;4.10;;;;;;;29.07;36.22;98565.22;6951847;28;20234;-80
2022/07/28 08:57:17;;;;;;;5.80;4.37;;;;;;;28.92;36.23;98567.69;6952717;28;20207;-80
2022/07/28 09:00:38;;;;;;;4.80;4.27;;;;;;;28.96;36.65;98563.13;6951243;28;20223;-80
2022/07/28 09:04:01;;;;;;;6.30;4.20;;;;;;;29.00;36.65;98561.31;6945278;28;20213;-80
2022/07/28 09:07:24;;;;;;;7.07;5.00;;;;;;;28.43;36.98;98557.13;6950731;28;20239;-81
2022/07/28 09:10:45;;;;;;;4.80;4.30;;;;;;;30.28;33.91;98550.44;6951154;28;20305;-77
2022/07/28 09:14:07;;;;;;;6.40;4.63;;;;;;;29.78;34.70;98524.59;6950899;28;20213;-78
2022/07/28 09:17:28;;;;;;;5.30;4.13;;;;;;;30.07;34.24;98546.81;6950931;28;20215;-79
2022/07/28 09:20:50;;;;;;;6.57;4.50;;;;;;;30.52;34.29;98550.56;6950538;28;20295;-78
2022/07/28 09:24:32;;;;;;;6.60;4.37;;;;;;;32.16;31.50;98550.78;6951522;28;20216;-79
2022/07/28 09:27:54;;;;;;;5.33;4.60;;;;;;;29.66;34.59;98547.53;6950367;28;20215;-78
2022/07/28 09:31:16;;;;;;;6.90;4.77;;;;;;;28.50;37.15;98547.19;6949801;28;20234;-78
2022/07/28 09:34:42;;;;;;;5.53;4.37;;;;;;;28.50;37.44;98552.72;6951493;28;20216;-80
2022/07/28 09:38:04;;;;;;;7.20;4.53;;;;;;;29.44;36.26;98533.06;6951396;28;20209;-81
2022/07/28 09:41:27;;;;;;;5.47;4.40;;;;;;;30.51;33.77;98527.50;6952014;28;20585;-80
2022/07/28 09:45:05;;;;;;;5.03;3.97;;;;;;;30.53;34.25;98539.09;6951326;28;20218;-80
2022/07/28 09:48:27;;;;;;;5.60;4.00;;;;;;;31.42;32.46;98538.38;6950697;28;20289;-81
2022/07/28 09:52:02;;;;;;;5.77;4.33;;;;;;;30.82;33.67;98508.38;6951067;28;20312;-80
2022/07/28 09:55:23;;;;;;;5.00;4.10;;;;;;;31.40;32.55;98524.78;6951468;28;20201;-81
2022/07/28 09:58:56;;;;;;;6.47;4.10;;;;;;;31.27;31.90;98519.53;6950678;28;20298;-81
2022/07/28 10:02:24;;;;;;;4.67;4.20;;;;;;;31.88;32.58;98490.50;6950396;28;20227;-80
2022/07/28 10:05:48;;;;;;;5.50;4.20;;;;;;;31.29;32.51;98508.84;6950338;28;20187;-80
2022/07/28 10:09:13;;;;;;;4.63;4.10;;;;;;;31.24;32.80;98504.31;6951949;28;20227;-81
2022/07/28 10:12:35;;;;;;;4.27;3.63;;;;;;;31.29;33.02;98506.88;6950958;28;20237;-81
2022/07/28 10:16:11;;;;;;;6.40;4.03;;;;;;;31.77;32.24;98509.69;6950857;28;20238;-80
2022/07/28 10:19:32;;;;;;;6.60;4.20;;;;;;;30.88;33.47;98508.97;6949914;28;20206;-80
2022/07/28 10:22:58;;;;;;;6.33;4.07;;;;;;;31.55;32.45;98500.97;6951429;28;20232;-80
2022/07/28 10:26:22;;;;;;;4.57;4.17;;;;;;;31.86;31.85;98496.44;6950672;28;20325;-80
2022/07/28 10:29:44;;;;;;;4.67;3.97;;;;;;;32.93;30.49;98488.88;6949103;28;20229;-80
2022/07/28 10:33:09;;;;;;;4.30;3.70;;;;;;;32.35;30.61;98497.13;6949076;28;20722;-80
2022/07/28 10:36:32;;;;;;;4.50;4.10;;;;;;;32.00;31.18;98484.88;6950254;28;20307;-81
2022/07/28 10:40:02;;;;;;;4.13;3.77;;;;;;;30.96;32.77;98489.38;6950059;28;20233;-80
2022/07/28 10:43:24;;;;;;;4.40;4.00;;;;;;;32.50;30.08;98466.53;6950419;28;20280;-81
2022/07/28 10:46:46;;;;;;;4.33;3.87;;;;;;;31.68;31.85;98478.31;6951208;28;20199;-80
2022/07/28 10:50:10;;;;;;;5.37;4.07;;;;;;;31.86;31.68;98474.13;6950519;28;20234;-81
2022/07/28 10:53:38;;;;;;;5.60;3.80;;;;;;;32.58;30.34;98467.50;6950779;28;20718;-80
2022/07/28 10:57:01;;;;;;;5.77;4.00;;;;;;;32.45;30.09;98469.56;6951296;28;20205;-81
2022/07/28 11:00:24;;;;;;;5.37;3.80;;;;;;;32.90;29.97;98458.84;6950169;28;20218;-80
2022/07/28 11:03:46;;;;;;;5.23;3.77;;;;;;;33.62;28.66;98463.09;6945448;28;20227;-81
2022/07/28 11:07:14;;;;;;;4.20;3.80;;;;;;;33.22;28.92;98457.72;6951072;28;20215;-80
2022/07/28 11:10:47;;;;;;;4.00;3.70;;;;;;;30.74;32.25;98473.09;6950892;28;20187;-80
2022/07/28 11:14:41;;;;;;;4.67;4.10;;;;;;;32.09;30.77;98460.47;6955277;28;20213;-81
2022/07/28 11:18:07;;;;;;;5.90;3.60;;;;;;;32.89;29.31;98453.66;6871560;28;20699;-81
2022/07/28 11:21:29;;;;;;;5.73;3.93;;;;;;;31.96;29.89;98462.47;6885419;28;20279;-81
2022/07/28 11:25:17;;;;;;;4.40;3.73;;;;;;;32.31;29.81;98457.19;6943681;28;20224;-81
2022/07/28 11:29:12;;;;;;;6.33;3.57;;;;;;;33.02;28.63;98453.19;6958172;28;20246;-81
2022/07/28 11:32:58;;;;;;;4.23;3.83;;;;;;;31.44;30.38;98460.78;6959798;28;20235;-81
2022/07/28 11:36:19;;;;;;;10.40;4.27;;;;;;;31.99;29.75;98456.19;6965333;28;20218;-80
2022/07/28 11:39:42;;;;;;;4.27;3.83;;;;;;;34.00;27.12;98446.41;6959359;28;20207;-80
2022/07/28 11:43:37;;;;;;;3.87;3.53;;;;;;;34.23;26.66;98452.91;6934538;28;20252;-80
2022/07/28 11:47:17;;;;;;;3.97;3.47;;;;;;;31.84;29.96;98454.13;6932355;28;20333;-80
2022/07/28 11:50:38;;;;;;;5.57;3.67;;;;;;;32.08;28.90;98445.69;6930382;28;20239;-81
2022/07/28 11:54:01;;;;;;;4.63;3.77;;;;;;;31.49;29.57;98454.97;6930603;28;20222;-80
2022/07/28 11:57:25;;;;;;;6.27;3.40;;;;;;;31.31;29.23;98431.31;6930637;28;20214;-80
2022/07/28 12:00:48;;;;;;;5.00;3.23;;;;;;;31.67;29.64;98448.78;6930116;28;20221;-80
2022/07/28 12:04:13;;;;;;;3.90;3.13;;;;;;;32.94;27.75;98443.00;6929811;28;20226;-80
2022/07/28 12:07:36;;;;;;;5.37;3.40;;;;;;;32.70;26.97;98442.31;6929153;28;20221;-81
2022/07/28 12:10:58;;;;;;;3.73;3.13;;;;;;;32.08;27.68;98434.53;6929856;28;20235;-80
2022/07/28 12:14:21;;;;;;;3.73;3.33;;;;;;;32.88;26.35;98413.72;6929717;28;20238;-80
2022/07/28 12:17:44;;;;;;;4.47;3.00;;;;;;;33.87;26.00;98434.56;6938120;28;20256;-80
2022/07/28 12:21:05;;;;;;;4.80;3.37;;;;;;;33.74;25.97;98410.66;6957109;28;20696;-80
2022/07/28 12:24:28;;;;;;;3.97;3.07;;;;;;;33.95;25.41;98430.75;6955823;28;20207;-80
2022/07/28 12:27:50;;;;;;;3.87;3.00;;;;;;;33.08;25.99;98414.63;6955564;28;20705;-80
2022/07/28 12:31:12;;;;;;;5.00;3.60;;;;;;;33.24;25.77;98379.06;6954997;28;20230;-80
2022/07/28 12:34:36;;;;;;;4.83;2.90;;;;;;;32.75;26.98;98414.94;6957091;28;20705;-80
2022/07/28 12:37:58;;;;;;;7.03;3.27;;;;;;;32.68;26.78;98420.34;6956229;28;20226;-80
2022/07/28 12:41:19;;;;;;;6.07;3.30;;;;;;;34.42;25.20;98403.38;6957563;28;20232;-81
2022/07/28 12:44:42;;;;;;;4.10;3.20;;;;;;;35.10;nan;98395.84;6969036;28;20239;-80
2022/07/28 12:48:06;;;;;;;6.33;3.80;;;;;;;36.08;23.14;98410.59;6971150;28;20412;-83
2022/07/28 12:51:37;;;;;;;3.80;3.07;;;;;;;35.51;23.92;98400.53;6963585;28;20234;-81
2022/07/28 12:54:58;;;;;;;4.07;2.90;;;;;;;35.52;23.29;98402.16;6954122;28;20190;-81
2022/07/28 12:58:25;;;;;;;7.67;3.40;;;;;;;33.55;24.95;98419.00;6954068;28;20682;-80
2022/07/28 13:01:48;;;;;;;4.43;3.40;;;;;;;31.75;27.25;98417.22;6953844;28;20288;-80
2022/07/28 13:05:26;;;;;;;3.20;2.90;;;;;;;33.12;26.33;98398.75;6953639;28;20207;-80
2022/07/28 13:08:50;;;;;;;5.40;3.20;;;;;;;33.86;24.72;98404.97;6952917;28;20226;-80
2022/07/28 13:12:19;;;;;;;3.23;2.87;;;;;;;35.00;24.08;98413.28;6953426;28;20330;-80
2022/07/28 13:15:41;;;;;;;5.73;3.00;;;;;;;33.74;24.92;98391.09;6953106;28;20207;-80
2022/07/28 13:19:04;;;;;;;4.37;3.07;;;;;;;33.92;24.94;98383.09;6952345;28;20217;-80
2022/07/28 13:22:27;;;;;;;3.13;2.80;;;;;;;34.24;24.10;98387.34;6952506;28;20231;-80
2022/07/28 13:25:51;;;;;;;3.40;3.03;;;;;;;34.79;23.32;98395.28;6952648;28;20207;-81
2022/07/28 13:29:13;;;;;;;3.10;2.80;;;;;;;34.70;24.33;98394.69;6951634;28;20270;-80
2022/07/28 13:32:34;;;;;;;4.67;3.30;;;;;;;34.38;24.54;98393.28;6950617;28;20288;-80
2022/07/28 13:35:57;;;;;;;3.77;2.97;;;;;;;33.58;25.59;98392.28;6951990;28;20248;-80
2022/07/28 13:39:19;;;;;;;3.27;2.97;;;;;;;34.26;24.83;98390.66;6951142;28;20211;-80
2022/07/28 13:42:42;;;;;;;3.70;2.90;;;;;;;33.67;25.14;98382.53;6951786;28;20239;-80
2022/07/28 13:46:04;;;;;;;4.23;3.00;;;;;;;33.48;25.53;98373.31;6951433;28;20214;-78
2022/07/28 13:49:27;;;;;;;3.20;3.00;;;;;;;34.02;24.77;98365.72;6950175;28;20253;-78
2022/07/28 13:52:48;;;;;;;3.93;3.33;;;;;;;33.82;24.63;98364.09;6950361;28;20313;-78
2022/07/28 13:56:10;;;;;;;4.17;3.13;;;;;;;33.41;25.21;98371.16;6950650;28;20293;-79
2022/07/28 13:59:33;;;;;;;3.33;2.70;;;;;;;33.86;25.15;98363.00;6949386;28;20214;-78
2022/07/28 14:02:55;;;;;;;4.23;3.10;;;;;;;33.94;25.14;98370.38;6950057;28;20237;-78
2022/07/28 14:06:16;;;;;;;4.77;3.40;;;;;;;34.13;24.72;98361.97;6950102;28;20211;-79
2022/07/28 14:09:38;;;;;;;3.87;2.90;;;;;;;34.96;23.57;98361.16;6950139;28;20342;-79
2022/07/28 14:12:59;;;;;;;5.73;3.40;;;;;;;33.92;24.11;98350.34;6950544;28;20230;-79
2022/07/28 14:16:23;;;;;;;6.83;3.40;;;;;;;34.26;23.97;98278.69;6950625;28;20270;-81
2022/07/28 14:19:44;;;;;;;3.00;2.70;;;;;;;35.01;23.09;98344.03;6950498;28;20207;-80
2022/07/28 14:23:06;;;;;;;4.90;3.10;;;;;;;33.39;25.45;98342.75;6941322;28;20305;-81
2022/07/28 14:26:27;;;;;;;5.47;3.50;;;;;;;33.08;25.99;98358.75;6922835;28;20212;-80
2022/07/28 14:29:49;;;;;;;6.97;3.20;;;;;;;32.98;26.89;98340.56;6922173;28;20351;-80
2022/07/28 14:33:12;;;;;;;5.60;3.70;;;;;;;33.83;25.42;98332.16;6922772;28;20325;-80
2022/07/28 14:36:33;;;;;;;4.93;3.43;;;;;;;32.88;25.65;98327.13;6923030;28;20192;-81
2022/07/28 14:39:55;;;;;;;5.07;3.50;;;;;;;33.14;25.40;98338.53;6921613;28;20566;-80
2022/07/28 14:43:17;;;;;;;5.97;3.30;;;;;;;32.99;25.82;98342.16;6922223;28;20239;-80
2022/07/28 14:46:38;;;;;;;3.70;3.10;;;;;;;32.80;25.82;98305.78;6922962;28;20295;-81
2022/07/28 14:50:02;;;;;;;4.03;3.10;;;;;;;33.01;25.27;98319.47;6921674;28;20234;-80
2022/07/28 14:53:24;;;;;;;5.03;3.10;;;;;;;33.26;25.33;98318.84;6922052;28;20263;-81
2022/07/28 14:56:45;;;;;;;7.70;3.30;;;;;;;33.04;24.42;98301.97;6922612;28;20218;-80
2022/07/28 15:00:08;;;;;;;4.90;3.00;;;;;;;33.76;24.16;98306.78;6921064;28;20218;-80
2022/07/28 15:03:30;;;;;;;3.93;3.10;;;;;;;32.48;25.15;98298.56;6922237;28;20228;-81
2022/07/28 15:06:53;;;;;;;4.47;3.20;;;;;;;32.59;25.71;98304.41;6921948;28;20302;-80
2022/07/28 15:10:15;;;;;;;3.40;3.10;;;;;;;32.59;24.30;98321.16;6920737;28;20273;-80
2022/07/28 15:13:36;;;;;;;4.40;2.83;;;;;;;34.04;22.72;98316.63;6921710;28;20274;-80
2022/07/28 15:16:59;;;;;;;4.87;3.30;;;;;;;33.86;22.61;98292.25;6921527;28;20226;-80
2022/07/28 15:20:20;;;;;;;4.00;3.13;;;;;;;33.21;23.66;98313.56;6921405;28;20303;-78
2022/07/28 15:23:44;;;;;;;3.40;3.10;;;;;;;33.14;23.98;98295.81;6922275;28;20224;-78
2022/07/28 15:27:05;;;;;;;4.23;2.73;;;;;;;33.86;23.55;98312.66;6922181;28;20668;-81
2022/07/28 15:30:27;;;;;;;4.73;3.00;;;;;;;33.79;23.44;98301.31;6922777;28;20275;-80
2022/07/28 15:33:50;;;;;;;3.10;2.80;;;;;;;34.24;23.09;98304.19;6921997;28;20250;-81
2022/07/28 15:37:12;;;;;;;5.27;2.97;;;;;;;33.13;23.45;98297.00;6921761;28;20285;-81
2022/07/28 15:40:34;;;;;;;4.53;3.10;;;;;;;33.22;23.02;98289.22;6921579;28;20295;-81
2022/07/28 15:43:56;;;;;;;3.57;3.23;;;;;;;33.21;23.33;98305.19;6921849;28;20266;-80
2022/07/28 15:47:18;;;;;;;5.03;3.10;;;;;;;33.13;23.66;98299.78;6921960;28;20219;-81
2022/07/28 15:50:44;;;;;;;3.47;3.17;;;;;;;33.01;23.79;98283.94;6921549;28;20329;-80
2022/07/28 15:54:06;;;;;;;3.20;2.90;;;;;;;33.42;23.97;98285.31;6921214;28;20206;-81
2022/07/28 15:57:29;;;;;;;5.17;2.90;;;;;;;34.20;22.32;98292.13;6921423;28;20215;-80
2022/07/28 16:00:50;;;;;;;3.63;2.93;;;;;;;34.04;21.45;98288.63;6924728;28;20294;-80